sensor_id;sensor_type;location;lat;lon;timestamp;P1;durP1;ratioP1;P2;durP2;ratioP2
7195;SDS011;3639;51.308;5.624;2023-05-07T00:02:01;5.93;;;5.33;;
7195;SDS011;3639;51.308;5.624;2023-05-07T00:04:28;7.00;;;5.27;;
7195;SDS011;3639;51.308;5.624;2023-05-07T00:07:00;8.43;;;6.17;;
7195;SDS011;3639;51.308;5.624;2023-05-07T00:09:26;8.90;;;5.97;;
7195;SDS011;3639;51.308;5.624;2023-05-07T00:11:52;7.90;;;5.47;;
7195;SDS011;3639;51.308;5.624;2023-05-07T00:14:17;6.53;;;5.60;;
7195;SDS011;3639;51.308;5.624;2023-05-07T00:16:43;6.60;;;5.33;;
7195;SDS011;3639;51.308;5.624;2023-05-07T00:19:08;6.67;;;6.00;;
7195;SDS011;3639;51.308;5.624;2023-05-07T00:21:34;7.13;;;5.93;;
7195;SDS011;3639;51.308;5.624;2023-05-07T00:24:00;9.03;;;5.97;;
7195;SDS011;3639;51.308;5.624;2023-05-07T00:26:25;8.27;;;6.50;;
7195;SDS011;3639;51.308;5.624;2023-05-07T00:28:51;8.93;;;6.40;;
7195;SDS011;3639;51.308;5.624;2023-05-07T00:31:16;10.30;;;7.00;;
7195;SDS011;3639;51.308;5.624;2023-05-07T00:33:42;8.80;;;6.97;;
7195;SDS011;3639;51.308;5.624;2023-05-07T00:36:07;9.43;;;6.90;;
7195;SDS011;3639;51.308;5.624;2023-05-07T00:38:33;10.97;;;7.50;;
7195;SDS011;3639;51.308;5.624;2023-05-07T00:40:59;9.37;;;7.53;;
7195;SDS011;3639;51.308;5.624;2023-05-07T00:43:24;9.87;;;7.60;;
7195;SDS011;3639;51.308;5.624;2023-05-07T00:45:50;9.67;;;6.83;;
7195;SDS011;3639;51.308;5.624;2023-05-07T00:48:16;11.50;;;6.77;;
7195;SDS011;3639;51.308;5.624;2023-05-07T00:50:42;10.43;;;7.17;;
7195;SDS011;3639;51.308;5.624;2023-05-07T00:53:08;9.97;;;7.60;;
7195;SDS011;3639;51.308;5.624;2023-05-07T00:55:34;13.00;;;8.37;;
7195;SDS011;3639;51.308;5.624;2023-05-07T00:58:01;10.57;;;8.27;;
7195;SDS011;3639;51.308;5.624;2023-05-07T01:00:26;11.90;;;8.83;;
7195;SDS011;3639;51.308;5.624;2023-05-07T01:02:52;13.30;;;9.27;;
7195;SDS011;3639;51.308;5.624;2023-05-07T01:05:18;11.60;;;8.70;;
7195;SDS011;3639;51.308;5.624;2023-05-07T01:07:45;12.73;;;9.40;;
7195;SDS011;3639;51.308;5.624;2023-05-07T01:10:12;12.03;;;9.40;;
7195;SDS011;3639;51.308;5.624;2023-05-07T01:12:38;12.33;;;9.43;;
7195;SDS011;3639;51.308;5.624;2023-05-07T01:15:06;12.07;;;8.97;;
7195;SDS011;3639;51.308;5.624;2023-05-07T01:17:38;12.43;;;9.60;;
7195;SDS011;3639;51.308;5.624;2023-05-07T01:20:05;12.60;;;10.03;;
7195;SDS011;3639;51.308;5.624;2023-05-07T01:22:32;13.77;;;9.63;;
7195;SDS011;3639;51.308;5.624;2023-05-07T01:25:02;14.53;;;9.37;;
7195;SDS011;3639;51.308;5.624;2023-05-07T01:27:29;15.90;;;10.47;;
7195;SDS011;3639;51.308;5.624;2023-05-07T01:29:55;13.60;;;10.13;;
7195;SDS011;3639;51.308;5.624;2023-05-07T01:35:11;17.83;;;10.87;;
7195;SDS011;3639;51.308;5.624;2023-05-07T01:37:39;14.03;;;9.47;;
7195;SDS011;3639;51.308;5.624;2023-05-07T01:40:05;15.90;;;10.27;;
7195;SDS011;3639;51.308;5.624;2023-05-07T01:42:32;12.37;;;10.03;;
7195;SDS011;3639;51.308;5.624;2023-05-07T01:44:58;12.90;;;10.23;;
7195;SDS011;3639;51.308;5.624;2023-05-07T01:47:24;14.37;;;10.10;;
7195;SDS011;3639;51.308;5.624;2023-05-07T01:49:50;14.10;;;10.37;;
7195;SDS011;3639;51.308;5.624;2023-05-07T01:52:16;15.87;;;10.60;;
7195;SDS011;3639;51.308;5.624;2023-05-07T01:54:42;12.57;;;9.67;;
7195;SDS011;3639;51.308;5.624;2023-05-07T01:57:07;12.87;;;9.73;;
7195;SDS011;3639;51.308;5.624;2023-05-07T01:59:33;15.10;;;10.40;;
7195;SDS011;3639;51.308;5.624;2023-05-07T02:01:59;12.83;;;9.80;;
7195;SDS011;3639;51.308;5.624;2023-05-07T02:04:25;17.27;;;10.83;;
7195;SDS011;3639;51.308;5.624;2023-05-07T02:06:51;13.97;;;10.97;;
7195;SDS011;3639;51.308;5.624;2023-05-07T02:09:17;12.73;;;10.00;;
7195;SDS011;3639;51.308;5.624;2023-05-07T02:11:43;17.47;;;11.37;;
7195;SDS011;3639;51.308;5.624;2023-05-07T02:14:09;12.93;;;9.50;;
7195;SDS011;3639;51.308;5.624;2023-05-07T02:16:35;18.83;;;11.93;;
7195;SDS011;3639;51.308;5.624;2023-05-07T02:19:00;17.30;;;12.17;;
7195;SDS011;3639;51.308;5.624;2023-05-07T02:21:26;18.47;;;12.40;;
7195;SDS011;3639;51.308;5.624;2023-05-07T02:23:51;17.60;;;12.47;;
7195;SDS011;3639;51.308;5.624;2023-05-07T02:26:17;16.80;;;12.13;;
7195;SDS011;3639;51.308;5.624;2023-05-07T02:28:43;17.50;;;12.57;;
7195;SDS011;3639;51.308;5.624;2023-05-07T02:31:09;20.67;;;12.73;;
7195;SDS011;3639;51.308;5.624;2023-05-07T02:33:34;18.37;;;13.17;;
7195;SDS011;3639;51.308;5.624;2023-05-07T02:36:10;17.77;;;13.67;;
7195;SDS011;3639;51.308;5.624;2023-05-07T02:38:36;17.67;;;11.70;;
7195;SDS011;3639;51.308;5.624;2023-05-07T02:41:02;18.53;;;11.93;;
7195;SDS011;3639;51.308;5.624;2023-05-07T02:43:28;16.80;;;13.03;;
7195;SDS011;3639;51.308;5.624;2023-05-07T02:46:27;17.70;;;12.10;;
7195;SDS011;3639;51.308;5.624;2023-05-07T02:48:45;16.40;;;11.53;;
7195;SDS011;3639;51.308;5.624;2023-05-07T02:51:11;20.50;;;13.17;;
7195;SDS011;3639;51.308;5.624;2023-05-07T02:53:36;16.90;;;12.30;;
7195;SDS011;3639;51.308;5.624;2023-05-07T02:56:02;18.57;;;12.63;;
7195;SDS011;3639;51.308;5.624;2023-05-07T02:58:28;18.23;;;12.30;;
7195;SDS011;3639;51.308;5.624;2023-05-07T03:00:53;18.90;;;13.23;;
7195;SDS011;3639;51.308;5.624;2023-05-07T03:03:22;16.90;;;12.37;;
7195;SDS011;3639;51.308;5.624;2023-05-07T03:05:48;17.50;;;12.60;;
7195;SDS011;3639;51.308;5.624;2023-05-07T03:08:13;21.23;;;13.80;;
7195;SDS011;3639;51.308;5.624;2023-05-07T03:10:39;17.80;;;12.40;;
7195;SDS011;3639;51.308;5.624;2023-05-07T03:13:04;17.53;;;12.57;;
7195;SDS011;3639;51.308;5.624;2023-05-07T03:15:30;19.30;;;12.47;;
7195;SDS011;3639;51.308;5.624;2023-05-07T03:17:56;18.13;;;13.00;;
7195;SDS011;3639;51.308;5.624;2023-05-07T03:20:21;20.13;;;13.23;;
7195;SDS011;3639;51.308;5.624;2023-05-07T03:22:47;18.73;;;12.93;;
7195;SDS011;3639;51.308;5.624;2023-05-07T03:25:13;21.97;;;13.53;;
7195;SDS011;3639;51.308;5.624;2023-05-07T03:27:39;18.90;;;12.90;;
7195;SDS011;3639;51.308;5.624;2023-05-07T03:30:06;17.87;;;13.00;;
7195;SDS011;3639;51.308;5.624;2023-05-07T03:32:33;19.23;;;13.10;;
7195;SDS011;3639;51.308;5.624;2023-05-07T03:35:00;16.43;;;12.53;;
7195;SDS011;3639;51.308;5.624;2023-05-07T03:37:26;17.97;;;12.80;;
7195;SDS011;3639;51.308;5.624;2023-05-07T03:39:51;20.10;;;14.20;;
7195;SDS011;3639;51.308;5.624;2023-05-07T03:42:17;25.53;;;14.73;;
7195;SDS011;3639;51.308;5.624;2023-05-07T03:44:42;22.07;;;15.13;;
7195;SDS011;3639;51.308;5.624;2023-05-07T03:47:08;23.47;;;14.80;;
7195;SDS011;3639;51.308;5.624;2023-05-07T03:49:35;20.90;;;14.80;;
7195;SDS011;3639;51.308;5.624;2023-05-07T03:52:00;21.63;;;14.90;;
7195;SDS011;3639;51.308;5.624;2023-05-07T03:54:26;21.30;;;14.73;;
7195;SDS011;3639;51.308;5.624;2023-05-07T03:56:52;25.13;;;16.50;;
7195;SDS011;3639;51.308;5.624;2023-05-07T03:59:17;23.00;;;15.03;;
7195;SDS011;3639;51.308;5.624;2023-05-07T04:01:43;21.30;;;15.20;;
7195;SDS011;3639;51.308;5.624;2023-05-07T04:04:08;24.33;;;16.17;;
7195;SDS011;3639;51.308;5.624;2023-05-07T04:06:34;27.40;;;16.37;;
7195;SDS011;3639;51.308;5.624;2023-05-07T04:08:59;24.83;;;16.90;;
7195;SDS011;3639;51.308;5.624;2023-05-07T04:11:25;21.87;;;15.40;;
7195;SDS011;3639;51.308;5.624;2023-05-07T04:13:51;27.50;;;15.87;;
7195;SDS011;3639;51.308;5.624;2023-05-07T04:16:16;27.77;;;17.10;;
7195;SDS011;3639;51.308;5.624;2023-05-07T04:18:42;24.40;;;16.20;;
7195;SDS011;3639;51.308;5.624;2023-05-07T04:21:17;28.83;;;17.03;;
7195;SDS011;3639;51.308;5.624;2023-05-07T04:23:45;26.43;;;17.53;;
7195;SDS011;3639;51.308;5.624;2023-05-07T04:26:11;25.77;;;16.53;;
7195;SDS011;3639;51.308;5.624;2023-05-07T04:28:37;23.57;;;16.70;;
7195;SDS011;3639;51.308;5.624;2023-05-07T04:31:03;26.97;;;16.07;;
7195;SDS011;3639;51.308;5.624;2023-05-07T04:33:29;26.03;;;15.77;;
7195;SDS011;3639;51.308;5.624;2023-05-07T04:35:54;23.90;;;16.27;;
7195;SDS011;3639;51.308;5.624;2023-05-07T04:38:20;24.73;;;16.40;;
7195;SDS011;3639;51.308;5.624;2023-05-07T04:40:46;24.83;;;16.93;;
7195;SDS011;3639;51.308;5.624;2023-05-07T04:43:11;25.90;;;16.07;;
7195;SDS011;3639;51.308;5.624;2023-05-07T04:45:38;29.07;;;17.03;;
7195;SDS011;3639;51.308;5.624;2023-05-07T04:48:06;27.20;;;17.43;;
7195;SDS011;3639;51.308;5.624;2023-05-07T04:50:32;26.23;;;16.00;;
7195;SDS011;3639;51.308;5.624;2023-05-07T04:52:58;26.27;;;17.27;;
7195;SDS011;3639;51.308;5.624;2023-05-07T04:55:23;27.20;;;17.63;;
7195;SDS011;3639;51.308;5.624;2023-05-07T04:57:49;25.77;;;15.97;;
7195;SDS011;3639;51.308;5.624;2023-05-07T05:00:15;26.57;;;18.03;;
7195;SDS011;3639;51.308;5.624;2023-05-07T05:02:44;26.80;;;17.47;;
7195;SDS011;3639;51.308;5.624;2023-05-07T05:05:10;25.53;;;16.87;;
7195;SDS011;3639;51.308;5.624;2023-05-07T05:07:36;29.33;;;18.77;;
7195;SDS011;3639;51.308;5.624;2023-05-07T05:10:02;26.43;;;18.10;;
7195;SDS011;3639;51.308;5.624;2023-05-07T05:12:28;25.03;;;18.10;;
7195;SDS011;3639;51.308;5.624;2023-05-07T05:14:55;26.67;;;18.63;;
7195;SDS011;3639;51.308;5.624;2023-05-07T05:17:20;27.37;;;18.57;;
7195;SDS011;3639;51.308;5.624;2023-05-07T05:19:46;28.87;;;18.40;;
7195;SDS011;3639;51.308;5.624;2023-05-07T05:22:11;29.33;;;19.13;;
7195;SDS011;3639;51.308;5.624;2023-05-07T05:24:37;27.13;;;18.33;;
7195;SDS011;3639;51.308;5.624;2023-05-07T05:27:02;27.73;;;18.33;;
7195;SDS011;3639;51.308;5.624;2023-05-07T05:29:29;31.00;;;19.20;;
7195;SDS011;3639;51.308;5.624;2023-05-07T05:31:56;28.30;;;18.70;;
7195;SDS011;3639;51.308;5.624;2023-05-07T05:34:22;28.17;;;18.17;;
7195;SDS011;3639;51.308;5.624;2023-05-07T05:36:47;24.57;;;16.90;;
7195;SDS011;3639;51.308;5.624;2023-05-07T05:39:13;28.40;;;19.47;;
7195;SDS011;3639;51.308;5.624;2023-05-07T05:41:39;32.77;;;19.17;;
7195;SDS011;3639;51.308;5.624;2023-05-07T05:44:05;24.77;;;17.00;;
7195;SDS011;3639;51.308;5.624;2023-05-07T05:46:30;31.03;;;18.30;;
7195;SDS011;3639;51.308;5.624;2023-05-07T05:48:56;28.07;;;17.33;;
7195;SDS011;3639;51.308;5.624;2023-05-07T05:51:22;25.53;;;16.50;;
7195;SDS011;3639;51.308;5.624;2023-05-07T05:53:48;25.70;;;17.83;;
7195;SDS011;3639;51.308;5.624;2023-05-07T05:56:13;22.87;;;16.80;;
7195;SDS011;3639;51.308;5.624;2023-05-07T05:58:40;25.07;;;17.40;;
7195;SDS011;3639;51.308;5.624;2023-05-07T06:01:06;26.63;;;16.87;;
7195;SDS011;3639;51.308;5.624;2023-05-07T06:03:31;25.20;;;16.97;;
7195;SDS011;3639;51.308;5.624;2023-05-07T06:05:59;27.57;;;17.63;;
7195;SDS011;3639;51.308;5.624;2023-05-07T06:08:25;24.77;;;17.37;;
7195;SDS011;3639;51.308;5.624;2023-05-07T06:10:53;24.67;;;16.20;;
7195;SDS011;3639;51.308;5.624;2023-05-07T06:13:19;24.63;;;17.07;;
7195;SDS011;3639;51.308;5.624;2023-05-07T06:15:45;23.80;;;16.53;;
7195;SDS011;3639;51.308;5.624;2023-05-07T06:18:10;27.13;;;16.50;;
7195;SDS011;3639;51.308;5.624;2023-05-07T06:20:36;23.43;;;15.83;;
7195;SDS011;3639;51.308;5.624;2023-05-07T06:23:02;21.97;;;14.67;;
7195;SDS011;3639;51.308;5.624;2023-05-07T06:25:27;21.53;;;14.40;;
7195;SDS011;3639;51.308;5.624;2023-05-07T06:27:53;18.47;;;13.93;;
7195;SDS011;3639;51.308;5.624;2023-05-07T06:30:18;23.50;;;14.13;;
7195;SDS011;3639;51.308;5.624;2023-05-07T06:32:44;18.47;;;13.50;;
7195;SDS011;3639;51.308;5.624;2023-05-07T06:35:10;21.37;;;13.63;;
7195;SDS011;3639;51.308;5.624;2023-05-07T06:37:35;16.63;;;12.33;;
7195;SDS011;3639;51.308;5.624;2023-05-07T06:40:03;17.13;;;11.60;;
7195;SDS011;3639;51.308;5.624;2023-05-07T06:42:30;18.20;;;12.60;;
7195;SDS011;3639;51.308;5.624;2023-05-07T06:44:56;18.60;;;12.83;;
7195;SDS011;3639;51.308;5.624;2023-05-07T06:47:21;17.20;;;12.37;;
7195;SDS011;3639;51.308;5.624;2023-05-07T06:49:47;18.90;;;12.80;;
7195;SDS011;3639;51.308;5.624;2023-05-07T06:52:12;15.77;;;11.50;;
7195;SDS011;3639;51.308;5.624;2023-05-07T06:54:38;18.70;;;12.40;;
7195;SDS011;3639;51.308;5.624;2023-05-07T06:57:03;16.27;;;11.23;;
7195;SDS011;3639;51.308;5.624;2023-05-07T06:59:29;15.80;;;11.03;;
7195;SDS011;3639;51.308;5.624;2023-05-07T07:01:55;16.23;;;10.97;;
7195;SDS011;3639;51.308;5.624;2023-05-07T07:04:20;14.27;;;10.47;;
7195;SDS011;3639;51.308;5.624;2023-05-07T07:06:47;14.00;;;10.37;;
7195;SDS011;3639;51.308;5.624;2023-05-07T07:09:13;16.27;;;10.13;;
7195;SDS011;3639;51.308;5.624;2023-05-07T07:11:39;14.30;;;10.27;;
7195;SDS011;3639;51.308;5.624;2023-05-07T07:14:04;13.67;;;9.93;;
7195;SDS011;3639;51.308;5.624;2023-05-07T07:16:30;12.43;;;9.33;;
7195;SDS011;3639;51.308;5.624;2023-05-07T07:18:56;11.37;;;8.37;;
7195;SDS011;3639;51.308;5.624;2023-05-07T07:21:21;13.03;;;9.77;;
7195;SDS011;3639;51.308;5.624;2023-05-07T07:23:47;15.83;;;9.87;;
7195;SDS011;3639;51.308;5.624;2023-05-07T07:26:12;13.27;;;9.20;;
7195;SDS011;3639;51.308;5.624;2023-05-07T07:28:42;14.57;;;9.87;;
7195;SDS011;3639;51.308;5.624;2023-05-07T07:31:10;14.73;;;11.13;;
7195;SDS011;3639;51.308;5.624;2023-05-07T07:33:36;12.23;;;10.23;;
7195;SDS011;3639;51.308;5.624;2023-05-07T07:36:02;14.70;;;10.70;;
7195;SDS011;3639;51.308;5.624;2023-05-07T07:38:27;15.03;;;10.83;;
7195;SDS011;3639;51.308;5.624;2023-05-07T07:40:53;12.97;;;10.37;;
7195;SDS011;3639;51.308;5.624;2023-05-07T07:43:19;15.40;;;10.67;;
7195;SDS011;3639;51.308;5.624;2023-05-07T07:45:45;13.57;;;10.47;;
7195;SDS011;3639;51.308;5.624;2023-05-07T07:48:11;13.20;;;10.00;;
7195;SDS011;3639;51.308;5.624;2023-05-07T07:50:36;13.73;;;10.97;;
7195;SDS011;3639;51.308;5.624;2023-05-07T07:53:02;13.87;;;10.73;;
7195;SDS011;3639;51.308;5.624;2023-05-07T07:55:28;14.87;;;10.63;;
7195;SDS011;3639;51.308;5.624;2023-05-07T07:57:54;12.47;;;9.60;;
7195;SDS011;3639;51.308;5.624;2023-05-07T08:00:19;12.30;;;9.90;;
7195;SDS011;3639;51.308;5.624;2023-05-07T08:02:45;12.27;;;9.67;;
7195;SDS011;3639;51.308;5.624;2023-05-07T08:05:10;14.93;;;10.43;;
7195;SDS011;3639;51.308;5.624;2023-05-07T08:07:36;11.67;;;9.10;;
7195;SDS011;3639;51.308;5.624;2023-05-07T08:10:02;11.80;;;9.23;;
7195;SDS011;3639;51.308;5.624;2023-05-07T08:12:27;11.83;;;9.27;;
7195;SDS011;3639;51.308;5.624;2023-05-07T08:14:53;12.70;;;8.77;;
7195;SDS011;3639;51.308;5.624;2023-05-07T08:17:19;12.73;;;9.50;;
7195;SDS011;3639;51.308;5.624;2023-05-07T08:19:47;15.27;;;8.37;;
7195;SDS011;3639;51.308;5.624;2023-05-07T08:22:13;10.97;;;9.10;;
7195;SDS011;3639;51.308;5.624;2023-05-07T08:24:39;14.07;;;8.93;;
7195;SDS011;3639;51.308;5.624;2023-05-07T08:27:05;14.50;;;8.67;;
7195;SDS011;3639;51.308;5.624;2023-05-07T08:29:30;10.67;;;8.87;;
7195;SDS011;3639;51.308;5.624;2023-05-07T08:31:56;13.87;;;8.70;;
7195;SDS011;3639;51.308;5.624;2023-05-07T08:34:22;11.77;;;9.03;;
7195;SDS011;3639;51.308;5.624;2023-05-07T08:36:47;13.13;;;9.20;;
7195;SDS011;3639;51.308;5.624;2023-05-07T08:39:14;12.77;;;9.00;;
7195;SDS011;3639;51.308;5.624;2023-05-07T08:41:43;11.77;;;8.33;;
7195;SDS011;3639;51.308;5.624;2023-05-07T08:44:11;13.73;;;9.70;;
7195;SDS011;3639;51.308;5.624;2023-05-07T08:46:39;10.03;;;8.73;;
7195;SDS011;3639;51.308;5.624;2023-05-07T08:49:06;13.27;;;9.60;;
7195;SDS011;3639;51.308;5.624;2023-05-07T08:51:32;11.00;;;8.17;;
7195;SDS011;3639;51.308;5.624;2023-05-07T08:53:58;12.97;;;9.10;;
7195;SDS011;3639;51.308;5.624;2023-05-07T08:56:26;11.90;;;8.70;;
7195;SDS011;3639;51.308;5.624;2023-05-07T08:58:51;11.60;;;8.87;;
7195;SDS011;3639;51.308;5.624;2023-05-07T09:01:21;12.50;;;7.80;;
7195;SDS011;3639;51.308;5.624;2023-05-07T09:03:47;12.93;;;7.67;;
7195;SDS011;3639;51.308;5.624;2023-05-07T09:06:12;11.47;;;7.97;;
7195;SDS011;3639;51.308;5.624;2023-05-07T09:08:38;9.30;;;7.00;;
7195;SDS011;3639;51.308;5.624;2023-05-07T09:11:04;12.63;;;8.70;;
7195;SDS011;3639;51.308;5.624;2023-05-07T09:13:29;7.17;;;5.93;;
7195;SDS011;3639;51.308;5.624;2023-05-07T09:15:55;11.20;;;5.80;;
7195;SDS011;3639;51.308;5.624;2023-05-07T09:18:21;11.53;;;7.53;;
7195;SDS011;3639;51.308;5.624;2023-05-07T09:20:49;10.13;;;6.43;;
7195;SDS011;3639;51.308;5.624;2023-05-07T09:23:15;8.27;;;6.03;;
7195;SDS011;3639;51.308;5.624;2023-05-07T09:25:41;7.50;;;6.23;;
7195;SDS011;3639;51.308;5.624;2023-05-07T09:28:06;7.97;;;6.13;;
7195;SDS011;3639;51.308;5.624;2023-05-07T09:30:33;8.23;;;6.10;;
7195;SDS011;3639;51.308;5.624;2023-05-07T09:32:59;7.47;;;5.30;;
7195;SDS011;3639;51.308;5.624;2023-05-07T09:35:27;5.33;;;4.20;;
7195;SDS011;3639;51.308;5.624;2023-05-07T09:37:53;6.27;;;4.70;;
7195;SDS011;3639;51.308;5.624;2023-05-07T09:40:24;6.87;;;5.17;;
7195;SDS011;3639;51.308;5.624;2023-05-07T09:42:50;5.90;;;4.97;;
7195;SDS011;3639;51.308;5.624;2023-05-07T09:47:54;6.70;;;5.07;;
7195;SDS011;3639;51.308;5.624;2023-05-07T09:50:28;6.32;;;4.93;;
7195;SDS011;3639;51.308;5.624;2023-05-07T09:52:55;7.35;;;5.20;;
7195;SDS011;3639;51.308;5.624;2023-05-07T09:55:22;6.45;;;5.20;;
7195;SDS011;3639;51.308;5.624;2023-05-07T09:57:50;7.03;;;4.97;;
7195;SDS011;3639;51.308;5.624;2023-05-07T10:00:18;8.77;;;5.97;;
7195;SDS011;3639;51.308;5.624;2023-05-07T10:02:45;8.18;;;5.32;;
7195;SDS011;3639;51.308;5.624;2023-05-07T10:05:14;7.65;;;5.70;;
7195;SDS011;3639;51.308;5.624;2023-05-07T10:07:40;6.75;;;4.40;;
7195;SDS011;3639;51.308;5.624;2023-05-07T10:10:06;6.40;;;4.47;;
7195;SDS011;3639;51.308;5.624;2023-05-07T10:12:32;5.20;;;3.92;;
7195;SDS011;3639;51.308;5.624;2023-05-07T10:15:04;6.30;;;4.22;;
7195;SDS011;3639;51.308;5.624;2023-05-07T10:17:37;7.13;;;5.38;;
7195;SDS011;3639;51.308;5.624;2023-05-07T10:20:04;10.07;;;5.82;;
7195;SDS011;3639;51.308;5.624;2023-05-07T10:22:52;6.45;;;4.38;;
7195;SDS011;3639;51.308;5.624;2023-05-07T10:25:30;4.63;;;3.67;;
7195;SDS011;3639;51.308;5.624;2023-05-07T10:28:01;4.65;;;3.58;;
7195;SDS011;3639;51.308;5.624;2023-05-07T10:33:18;3.35;;;2.53;;
7195;SDS011;3639;51.308;5.624;2023-05-07T10:35:48;5.03;;;2.95;;
7195;SDS011;3639;51.308;5.624;2023-05-07T10:38:14;6.13;;;3.60;;
7195;SDS011;3639;51.308;5.624;2023-05-07T10:40:40;4.90;;;3.28;;
7195;SDS011;3639;51.308;5.624;2023-05-07T10:43:05;4.63;;;3.50;;
7195;SDS011;3639;51.308;5.624;2023-05-07T10:45:31;4.38;;;3.60;;
7195;SDS011;3639;51.308;5.624;2023-05-07T10:48:05;5.63;;;3.00;;
7195;SDS011;3639;51.308;5.624;2023-05-07T10:50:32;4.50;;;3.08;;
7195;SDS011;3639;51.308;5.624;2023-05-07T10:53:31;4.22;;;3.05;;
7195;SDS011;3639;51.308;5.624;2023-05-07T10:58:59;3.65;;;2.72;;
7195;SDS011;3639;51.308;5.624;2023-05-07T11:01:49;4.25;;;3.20;;
7195;SDS011;3639;51.308;5.624;2023-05-07T11:04:19;2.80;;;2.50;;
7195;SDS011;3639;51.308;5.624;2023-05-07T11:12:15;3.65;;;2.70;;
7195;SDS011;3639;51.308;5.624;2023-05-07T11:17:10;4.30;;;3.60;;
7195;SDS011;3639;51.308;5.624;2023-05-07T11:19:52;5.80;;;3.45;;
7195;SDS011;3639;51.308;5.624;2023-05-07T11:24:55;5.10;;;3.40;;
7195;SDS011;3639;51.308;5.624;2023-05-07T11:27:28;4.63;;;4.13;;
7195;SDS011;3639;51.308;5.624;2023-05-07T11:29:54;4.22;;;3.45;;
7195;SDS011;3639;51.308;5.624;2023-05-07T11:32:27;6.05;;;4.40;;
7195;SDS011;3639;51.308;5.624;2023-05-07T11:34:54;7.15;;;5.07;;
7195;SDS011;3639;51.308;5.624;2023-05-07T11:37:21;6.15;;;4.22;;
7195;SDS011;3639;51.308;5.624;2023-05-07T11:39:48;4.53;;;3.85;;
7195;SDS011;3639;51.308;5.624;2023-05-07T11:42:28;6.90;;;4.47;;
7195;SDS011;3639;51.308;5.624;2023-05-07T11:44:55;5.20;;;4.60;;
7195;SDS011;3639;51.308;5.624;2023-05-07T11:47:21;6.70;;;5.35;;
7195;SDS011;3639;51.308;5.624;2023-05-07T11:49:47;5.93;;;4.40;;
7195;SDS011;3639;51.308;5.624;2023-05-07T11:52:14;7.57;;;4.60;;
7195;SDS011;3639;51.308;5.624;2023-05-07T11:54:40;6.20;;;4.95;;
7195;SDS011;3639;51.308;5.624;2023-05-07T11:57:06;4.57;;;4.18;;
7195;SDS011;3639;51.308;5.624;2023-05-07T11:59:41;6.22;;;4.78;;
7195;SDS011;3639;51.308;5.624;2023-05-07T12:02:09;6.13;;;4.88;;
7195;SDS011;3639;51.308;5.624;2023-05-07T12:04:35;5.45;;;3.80;;
7195;SDS011;3639;51.308;5.624;2023-05-07T12:07:00;6.85;;;5.15;;
7195;SDS011;3639;51.308;5.624;2023-05-07T12:09:26;5.25;;;4.43;;
7195;SDS011;3639;51.308;5.624;2023-05-07T12:11:52;6.03;;;3.85;;
7195;SDS011;3639;51.308;5.624;2023-05-07T12:14:18;5.72;;;4.75;;
7195;SDS011;3639;51.308;5.624;2023-05-07T12:16:44;4.90;;;4.38;;
7195;SDS011;3639;51.308;5.624;2023-05-07T12:19:11;3.87;;;3.37;;
7195;SDS011;3639;51.308;5.624;2023-05-07T12:21:40;5.40;;;3.07;;
7195;SDS011;3639;51.308;5.624;2023-05-07T12:24:06;5.60;;;3.03;;
7195;SDS011;3639;51.308;5.624;2023-05-07T12:26:33;6.60;;;3.30;;
7195;SDS011;3639;51.308;5.624;2023-05-07T12:29:02;11.57;;;4.77;;
7195;SDS011;3639;51.308;5.624;2023-05-07T12:31:28;9.63;;;4.30;;
7195;SDS011;3639;51.308;5.624;2023-05-07T12:33:54;12.37;;;4.60;;
7195;SDS011;3639;51.308;5.624;2023-05-07T12:36:19;6.87;;;3.23;;
7195;SDS011;3639;51.308;5.624;2023-05-07T12:38:46;6.23;;;3.37;;
7195;SDS011;3639;51.308;5.624;2023-05-07T12:41:15;5.97;;;2.77;;
7195;SDS011;3639;51.308;5.624;2023-05-07T12:43:43;4.57;;;2.30;;
7195;SDS011;3639;51.308;5.624;2023-05-07T12:46:10;4.50;;;2.40;;
7195;SDS011;3639;51.308;5.624;2023-05-07T12:48:43;2.43;;;2.13;;
7195;SDS011;3639;51.308;5.624;2023-05-07T12:51:09;5.80;;;2.30;;
7195;SDS011;3639;51.308;5.624;2023-05-07T12:53:39;5.40;;;2.33;;
7195;SDS011;3639;51.308;5.624;2023-05-07T12:56:07;2.73;;;2.20;;
7195;SDS011;3639;51.308;5.624;2023-05-07T12:58:33;3.50;;;2.60;;
7195;SDS011;3639;51.308;5.624;2023-05-07T13:01:01;6.27;;;3.33;;
7195;SDS011;3639;51.308;5.624;2023-05-07T13:03:31;7.57;;;2.97;;
7195;SDS011;3639;51.308;5.624;2023-05-07T13:06:02;5.00;;;3.50;;
7195;SDS011;3639;51.308;5.624;2023-05-07T13:08:35;4.70;;;3.40;;
7195;SDS011;3639;51.308;5.624;2023-05-07T13:11:04;5.03;;;3.30;;
7195;SDS011;3639;51.308;5.624;2023-05-07T13:13:33;3.17;;;2.87;;
7195;SDS011;3639;51.308;5.624;2023-05-07T13:16:00;3.23;;;2.73;;
7195;SDS011;3639;51.308;5.624;2023-05-07T13:18:27;5.10;;;2.73;;
7195;SDS011;3639;51.308;5.624;2023-05-07T13:20:54;3.67;;;2.87;;
7195;SDS011;3639;51.308;5.624;2023-05-07T13:23:20;4.57;;;2.70;;
7195;SDS011;3639;51.308;5.624;2023-05-07T13:25:46;3.30;;;2.93;;
7195;SDS011;3639;51.308;5.624;2023-05-07T13:28:12;5.30;;;3.23;;
7195;SDS011;3639;51.308;5.624;2023-05-07T13:30:38;2.60;;;2.30;;
7195;SDS011;3639;51.308;5.624;2023-05-07T13:33:04;3.73;;;2.60;;
7195;SDS011;3639;51.308;5.624;2023-05-07T13:35:29;4.30;;;2.60;;
7195;SDS011;3639;51.308;5.624;2023-05-07T13:37:55;2.43;;;1.93;;
7195;SDS011;3639;51.308;5.624;2023-05-07T13:40:21;2.50;;;2.30;;
7195;SDS011;3639;51.308;5.624;2023-05-07T13:42:47;2.70;;;2.30;;
7195;SDS011;3639;51.308;5.624;2023-05-07T13:45:13;4.53;;;2.33;;
7195;SDS011;3639;51.308;5.624;2023-05-07T13:47:40;3.90;;;2.50;;
7195;SDS011;3639;51.308;5.624;2023-05-07T13:50:07;3.03;;;2.60;;
7195;SDS011;3639;51.308;5.624;2023-05-07T13:52:33;5.40;;;2.70;;
7195;SDS011;3639;51.308;5.624;2023-05-07T13:54:59;5.80;;;2.90;;
7195;SDS011;3639;51.308;5.624;2023-05-07T13:57:25;3.27;;;1.93;;
7195;SDS011;3639;51.308;5.624;2023-05-07T13:59:50;6.83;;;2.27;;
7195;SDS011;3639;51.308;5.624;2023-05-07T14:02:16;7.03;;;2.30;;
7195;SDS011;3639;51.308;5.624;2023-05-07T14:04:41;3.37;;;2.33;;
7195;SDS011;3639;51.308;5.624;2023-05-07T14:07:07;3.47;;;2.50;;
7195;SDS011;3639;51.308;5.624;2023-05-07T14:09:32;3.60;;;1.93;;
7195;SDS011;3639;51.308;5.624;2023-05-07T14:11:58;2.37;;;2.13;;
7195;SDS011;3639;51.308;5.624;2023-05-07T14:14:24;3.60;;;2.50;;
7195;SDS011;3639;51.308;5.624;2023-05-07T14:16:49;3.77;;;2.77;;
7195;SDS011;3639;51.308;5.624;2023-05-07T14:19:15;4.43;;;3.33;;
7195;SDS011;3639;51.308;5.624;2023-05-07T14:21:41;3.80;;;2.93;;
7195;SDS011;3639;51.308;5.624;2023-05-07T14:24:06;6.27;;;4.00;;
7195;SDS011;3639;51.308;5.624;2023-05-07T14:26:33;6.53;;;5.00;;
7195;SDS011;3639;51.308;5.624;2023-05-07T14:28:59;5.20;;;4.37;;
7195;SDS011;3639;51.308;5.624;2023-05-07T14:31:25;6.93;;;4.57;;
7195;SDS011;3639;51.308;5.624;2023-05-07T14:33:51;7.83;;;4.47;;
7195;SDS011;3639;51.308;5.624;2023-05-07T14:36:17;5.27;;;4.70;;
7195;SDS011;3639;51.308;5.624;2023-05-07T14:38:45;6.73;;;4.90;;
7195;SDS011;3639;51.308;5.624;2023-05-07T14:41:10;6.73;;;4.73;;
7195;SDS011;3639;51.308;5.624;2023-05-07T14:43:36;6.53;;;4.87;;
7195;SDS011;3639;51.308;5.624;2023-05-07T14:46:02;7.10;;;5.43;;
7195;SDS011;3639;51.308;5.624;2023-05-07T14:48:28;5.30;;;4.80;;
7195;SDS011;3639;51.308;5.624;2023-05-07T14:50:53;10.17;;;5.83;;
7195;SDS011;3639;51.308;5.624;2023-05-07T14:53:19;7.10;;;5.57;;
7195;SDS011;3639;51.308;5.624;2023-05-07T14:55:44;6.07;;;5.47;;
7195;SDS011;3639;51.308;5.624;2023-05-07T14:58:11;6.03;;;4.63;;
7195;SDS011;3639;51.308;5.624;2023-05-07T15:00:37;8.60;;;4.97;;
7195;SDS011;3639;51.308;5.624;2023-05-07T15:03:06;10.37;;;5.70;;
7195;SDS011;3639;51.308;5.624;2023-05-07T15:05:33;8.77;;;5.43;;
7195;SDS011;3639;51.308;5.624;2023-05-07T15:08:00;6.07;;;5.43;;
7195;SDS011;3639;51.308;5.624;2023-05-07T15:10:25;7.40;;;6.00;;
7195;SDS011;3639;51.308;5.624;2023-05-07T15:12:51;7.50;;;5.40;;
7195;SDS011;3639;51.308;5.624;2023-05-07T15:15:17;8.53;;;7.40;;
7195;SDS011;3639;51.308;5.624;2023-05-07T15:17:42;12.60;;;10.33;;
7195;SDS011;3639;51.308;5.624;2023-05-07T15:20:08;11.27;;;8.37;;